AirNav   Air Wisconsin pilot careers
 
 905 users online  

KRCK H H Coffield Regional Airport
Rockdale, Texas, USA

GOING TO ROCKDALE?


FAA INFORMATION EFFECTIVE 21 JUNE 2018

Location

FAA Identifier: RCK
Lat/Long: 30-37-52.9550N / 096-59-22.1550W
30-37.882583N / 096-59.369250W
30.6313764 / -96.9894875
(estimated)
Elevation: 474 ft. / 144 m (estimated)
Variation: 06E (1985)
From city: 2 miles SE of ROCKDALE, TX
Time zone: UTC -5 (UTC -6 during Standard Time)
Zip code: 76567

Airport Operations

Airport use: Open to the public
Activation date: 05/1948
Control tower: no
ARTCC: HOUSTON CENTER
FSS: MONTGOMERY COUNTY FLIGHT SERVICE STATION
FOR FP FILING CALL CXO FSS 1-800-992-7433.
NOTAMs facility: CXO (NOTAM-D service available)
Attendance: UNATNDD
Wind indicator: lighted
Segmented circle: yes
Lights: SS-SR
Beacon: white-green (lighted land airport)
ROTG BCN OTS INDEFLY. Operates sunset to sunrise.

Airport Communications

CTAF: 122.9
WX AWOS-3PT at T35 (15 nm N): 124.1 (254-605-0856)
WX AWOS-3 at RWV (16 nm SE): 118.35 (979-567-6784)

Nearby radio navigation aids

VOR radial/distance  VOR name  Freq  Var
CLLr265/29.4COLLEGE STATION VORTAC113.3008E
CWKr055/31.8CENTEX VORTAC112.8006E

Airport Services

Fuel available: 100LL
FOR FUEL CALL 512-446-2511; AFT 1700 & WKENDS CALL 512-446-3436.
Parking: tiedowns
Airframe service: NONE
Powerplant service: NONE

Runway Information

Runway 17/35

Dimensions: 2962 x 50 ft. / 903 x 15 m
Surface: asphalt, in good condition
Runway edge lights: non-standard
NSTD LIRL DUE TO SPACING.
Runway edge markings: NBRS NSTD 48 TALL.
RUNWAY 17  RUNWAY 35
Latitude: 30-38.126500N30-37.638667N
Longitude: 096-59.351333W096-59.387167W
Elevation: 474.0 ft.453.8 ft.
Gradient: 0.7% UP
Traffic pattern: leftleft
Markings: NSTD, in good conditionNSTD, in good condition
Obstructions: 17 ft. road, 200 ft. from runway, 51 ft. left of centerline
+4 FT FENCE 38 FT FM THLD 125 FT L OF CNTRLN.
27 ft. trees, 200 ft. from runway, 124 ft. right of centerline
4 FT FENCE 185 FT FM THLD ACROSS APCH; 23 FT TREE AT THLD 100 FT LEFT.

Airport Ownership and Management from official FAA records

Ownership: Publicly-owned
Owner: CITY OF ROCKDALE
505 W. CAMERON
ROCKDALE, TX 76567
Phone 512-446-2511
Manager: ZACH REEVES
505 W. CAMERON
ROCKDALE, TX 76567
Phone (512) 760-6991
DIRECTOR OF PUBLIC WORKS

Airport Operational Statistics

Aircraft based on the field: 8
Single engine airplanes: 8
    
Aircraft operations: avg 61/week *
75% local general aviation
25% transient general aviation
* for 12-month period ending 28 January 2016

Additional Remarks

+40 FT ANT ON HGR E SIDE OF RY.
FOR CD CTC HOUSTON APCH AT 281-443-5844 TO CNL IFR CALL 281-443-5888.

Instrument Procedures

There are no published instrument procedures at KRCK.

Some nearby airports with instrument procedures:

KRWV - Caldwell Municipal Airport (16 nm SE)
T74 - Taylor Municipal Airport (24 nm W)
KLHB - Hearne Municipal Airport (24 nm NE)
KGYB - Giddings-Lee County Airport (28 nm S)
KCLL - Easterwood Field Airport (32 nm E)
 
Loc | Ops | Rwys | IFR | FBO | Links
Com | Nav | Svcs | Stats | Notes

AirNav Hotels Sweepstakes
 
Area around KRCK (H H Coffield Regional Airport)
 
Road maps at: MapQuest Bing Google
 
Aerial photo
WARNING: Photo may not be current or correct
Aerial photo of KRCK (H H Coffield Regional Airport)
Photo by Terry L. Blodgett
Photo taken 20-Aug-2009

Do you have a better or more recent aerial photo of H H Coffield Regional Airport that you would like to share? If so, please send us your photo.

 
Sectional chart

 
Airport distance calculator
Flying to H H Coffield Regional Airport? Find the distance to fly.

From to KRCK

Sunrise and sunset
Times for 23-Jun-2018
 Local
(UTC-5)
 Zulu
(UTC)
Morning civil twilight06:0011:00
Sunrise06:2711:27
Sunset20:3301:33
Evening civil twilight21:0102:01

Current date and time
Zulu (UTC)  23-Jun-2018 23:38:13
Local (UTC-5)  23-Jun-2018 18:38:13
 
METAR
KT35 
15nm N 
232315Z AUTO 17013G20KT 10SM CLR 35/21 A2974 RMK AO2 T03450211
KRWV 
16nm SE 
232315Z AUTO 16019KT 10SM SCT046 33/23 A2977 RMK AO2 T03290230
KLHB 
24nm NE 
232315Z AUTO 14011G18KT 10SM CLR 33/23 A2976 RMK AO2 T03300231
KGYB 
28nm S 
232315Z AUTO 15010G15KT 10SM SCT047 33/21 A2978 RMK AO2 T03290213
TAF
KCLL 
32nm E 
231720Z 2318/2418 18013G22KT P6SM SCT045 FM240200 16014KT P6SM SKC FM240800 17012KT P6SM BKN015 FM241500 17015G21KT P6SM SCT025 BKN035
NOTAMs
Click for the latest NOTAMs
NOTAMs are issued by the DoD/FAA and will open in a separate window not controlled by AirNav.

 

 
 

FBO, Fuel Providers, and Aircraft Ground Support

  
 Business Name 
 
 Contact 
 
 Services / Description 
 
Fuel Prices
 
Comments
  
City of Rockdale 512-446-2511
no information available

If you are affiliated with City of Rockdale and would like to show here your services, contact info, web link, logo, and more, click here
100LL
AS $4.45 
 Updated 19-Jun-2018
 
   1 read write
AS=Assisted/Self Service
Update Fuel Prices
 

Would you like to see your business listed on this page?

 If your business provides an interesting product or service to pilots, flight crews, aircraft, or users of the H H Coffield Regional Airport, you should consider listing it here.  To start the listing process, click on the button below
 
Add a business
 

Other Pages about H H Coffield Regional Airport

Update a link
 
Copyright © AirNav, LLC. All rights reserved. Privacy Policy  Contact